Time;durP1;ratioP1;P1;durP2;ratioP2;P2;SDS_P1;SDS_P2;PMS_P1;PMS_P2;Temp;Humidity;BMP_temperature;BMP_pressure;BME280_temperature;BME280_humidity;BME280_pressure;Samples;Min_cycle;Max_cycle;Signal;HPM_P1;HPM_P2
2022/04/08 00:01:48;;;;;;;6.57;5.53;;;;;;;14.21;78.38;98082.28;5053686;28;20264;-77
2022/04/08 00:04:19;;;;;;;10.47;4.60;;;;;;;14.01;77.68;98084.72;5053233;28;20212;-77
2022/04/08 00:06:52;;;;;;;8.90;4.93;;;;;;;13.80;78.79;98076.78;5053026;28;20302;-77
2022/04/08 00:09:22;;;;;;;8.03;4.87;;;;;;;13.59;79.21;98082.91;5037745;28;20199;-77
2022/04/08 00:11:50;;;;;;;7.33;4.10;;;;;;;13.50;79.82;98085.22;5053501;28;20232;-81
2022/04/08 00:14:36;;;;;;;4.93;4.50;;;;;;;13.28;80.14;98084.41;5052657;28;20196;-81
2022/04/08 00:17:04;;;;;;;9.60;4.60;;;;;;;13.02;81.00;98082.47;5052957;28;20203;-81
2022/04/08 00:19:36;;;;;;;5.03;3.87;;;;;;;12.94;81.72;98088.19;5053181;28;20197;-87
2022/04/08 00:22:10;;;;;;;8.03;4.30;;;;;;;12.78;82.56;98094.34;5035559;28;20565;-81
2022/04/08 00:24:37;;;;;;;5.43;4.53;;;;;;;12.84;82.46;98076.56;5053001;28;20188;-80
2022/04/08 00:27:04;;;;;;;5.77;4.27;;;;;;;12.87;82.34;98086.75;5053208;28;20224;-81
2022/04/08 00:29:34;;;;;;;8.23;4.30;;;;;;;12.72;83.21;98076.69;5034791;28;20196;-81
2022/04/08 00:32:01;;;;;;;8.67;4.80;;;;;;;12.72;83.10;98084.66;5053306;28;20201;-82
2022/04/08 00:34:31;;;;;;;6.33;4.60;;;;;;;12.75;83.70;98078.88;5052687;28;20585;-81
2022/04/08 00:36:58;;;;;;;6.33;5.53;;;;;;;12.67;83.70;98081.94;5052948;28;20208;-79
2022/04/08 00:39:28;;;;;;;8.73;5.73;;;;;;;12.65;83.62;98084.03;5034863;28;20196;-78
2022/04/08 00:41:57;;;;;;;9.00;5.97;;;;;;;12.53;83.59;98093.16;5052837;28;20280;-78
2022/04/08 00:44:31;;;;;;;11.37;5.17;;;;;;;12.41;83.38;98105.75;5034992;28;20203;-78
2022/04/08 00:46:59;;;;;;;8.20;5.13;;;;;;;12.37;83.50;98092.09;5052159;28;20225;-80
2022/04/08 00:49:27;;;;;;;9.87;5.90;;;;;;;12.32;83.38;98101.84;5052595;28;20212;-80
2022/04/08 00:51:54;;;;;;;8.73;5.13;;;;;;;12.11;83.58;98108.69;5034516;28;20273;-80
2022/04/08 00:54:22;;;;;;;7.53;4.90;;;;;;;12.11;83.40;98100.69;5051556;28;20196;-81
2022/04/08 00:56:50;;;;;;;11.90;5.20;;;;;;;12.08;83.48;98108.38;5052634;28;20209;-82
2022/04/08 00:59:21;;;;;;;8.97;4.50;;;;;;;11.98;83.27;98111.66;5034877;28;20214;-81
2022/04/08 01:01:49;;;;;;;4.90;3.97;;;;;;;11.87;83.01;98131.13;5034953;28;20203;-81
2022/04/08 01:04:18;;;;;;;3.50;3.20;;;;;;;11.77;83.83;98127.44;5052173;28;20199;-81
2022/04/08 01:06:48;;;;;;;3.20;2.90;;;;;;;11.63;83.79;98129.56;5051907;28;20206;-81
2022/04/08 01:09:16;;;;;;;6.67;3.13;;;;;;;11.73;83.69;98140.44;5034656;28;20199;-85
2022/04/08 01:11:44;;;;;;;7.37;3.63;;;;;;;11.63;83.95;98126.91;5052197;28;20228;-84
2022/04/08 01:14:12;;;;;;;3.70;3.30;;;;;;;11.64;83.77;98139.16;5052156;28;20211;-84
2022/04/08 01:16:41;;;;;;;5.00;3.00;;;;;;;11.74;82.65;98149.19;5052089;28;20203;-84
2022/04/08 01:19:09;;;;;;;3.53;2.87;;;;;;;11.76;82.39;98136.47;5052170;28;20206;-84
2022/04/08 01:21:39;;;;;;;2.40;2.30;;;;;;;11.85;81.44;98151.03;5034661;28;20200;-84
2022/04/08 01:24:11;;;;;;;2.60;2.27;;;;;;;12.01;81.25;98150.28;5052037;28;20201;-83
2022/04/08 01:26:45;;;;;;;2.83;2.63;;;;;;;11.98;80.99;98154.22;5052609;28;20209;-82
2022/04/08 01:29:15;;;;;;;3.30;2.70;;;;;;;12.00;80.86;98136.16;5052143;28;20232;-82
2022/04/08 01:31:45;;;;;;;2.57;2.37;;;;;;;12.17;79.97;98166.28;5051788;28;20206;-81
2022/04/08 01:34:12;;;;;;;2.70;2.50;;;;;;;12.14;79.85;98166.78;5052099;28;20210;-83
2022/04/08 01:36:40;;;;;;;5.53;2.57;;;;;;;12.20;79.31;98168.47;5034384;28;20210;-80
2022/04/08 01:39:07;;;;;;;3.40;2.30;;;;;;;12.14;79.29;98161.44;5052062;28;20265;-81
2022/04/08 01:41:36;;;;;;;3.07;2.13;;;;;;;12.18;78.93;98169.75;5033437;28;20206;-81
2022/04/08 01:44:18;;;;;;;4.80;3.10;;;;;;;12.20;78.43;98175.63;5051962;28;20196;-81
2022/04/08 01:46:45;;;;;;;2.60;2.40;;;;;;;12.16;78.38;98169.97;5051523;28;20197;-81
2022/04/08 01:49:12;;;;;;;3.30;2.50;;;;;;;12.24;78.33;98166.94;5051741;28;20219;-81
2022/04/08 01:51:40;;;;;;;2.73;2.60;;;;;;;12.32;77.97;98169.22;5051942;28;20196;-82
2022/04/08 01:54:10;;;;;;;4.30;2.47;;;;;;;12.31;76.71;98172.94;5051289;28;20199;-81
2022/04/08 01:56:37;;;;;;;6.40;2.80;;;;;;;12.39;76.71;98175.22;5051577;28;20200;-86
2022/04/08 01:59:10;;;;;;;2.33;2.10;;;;;;;12.41;76.54;98169.66;5054436;28;20202;-86
2022/04/08 02:01:40;;;;;;;5.63;3.37;;;;;;;12.28;76.04;98173.41;5056032;28;20198;-81
2022/04/08 02:04:11;;;;;;;3.00;2.37;;;;;;;12.34;75.88;98172.47;5038061;28;20193;-81
2022/04/08 02:06:43;;;;;;;3.33;3.03;;;;;;;12.45;75.06;98173.44;5055599;28;20208;-85
2022/04/08 02:09:18;;;;;;;5.07;2.57;;;;;;;12.52;74.11;98174.91;5055948;28;20228;-86
2022/04/08 02:11:49;;;;;;;3.07;2.53;;;;;;;12.56;74.06;98176.03;5055541;28;20315;-86
2022/04/08 02:14:18;;;;;;;3.37;2.60;;;;;;;12.57;74.03;98172.31;5055703;28;20207;-83
2022/04/08 02:16:48;;;;;;;3.30;3.10;;;;;;;12.58;73.37;98175.81;5055531;28;20200;-82
2022/04/08 02:19:15;;;;;;;3.10;2.90;;;;;;;12.64;72.88;98186.31;5055304;28;20225;-81
2022/04/08 02:21:45;;;;;;;4.97;2.70;;;;;;;12.67;72.70;98188.50;5055446;28;20200;-80
2022/04/08 02:24:14;;;;;;;3.37;2.70;;;;;;;12.74;72.50;98194.44;5055728;28;20207;-80
2022/04/08 02:26:42;;;;;;;3.37;2.37;;;;;;;12.76;71.58;98189.72;5054843;28;20200;-81
2022/04/08 02:29:10;;;;;;;3.77;2.27;;;;;;;12.83;71.44;98192.22;5055189;28;20229;-79
2022/04/08 02:31:47;;;;;;;2.80;2.60;;;;;;;12.87;71.33;98199.47;5055360;28;20196;-81
2022/04/08 02:34:15;;;;;;;4.30;3.03;;;;;;;12.89;71.20;98194.72;5037994;28;20622;-80
2022/04/08 02:36:42;;;;;;;4.00;3.60;;;;;;;12.99;70.69;98205.56;5054968;28;20660;-81
2022/04/08 02:39:10;;;;;;;4.40;4.00;;;;;;;12.99;70.41;98202.88;5055059;28;20204;-81
2022/04/08 02:41:37;;;;;;;3.97;3.67;;;;;;;12.96;70.51;98206.03;5037091;28;20197;-81
2022/04/08 02:44:08;;;;;;;4.67;3.93;;;;;;;13.02;70.26;98206.94;5054792;28;20197;-80
2022/04/08 02:46:35;;;;;;;4.40;3.03;;;;;;;13.01;70.39;98206.13;5004553;28;20199;-82
2022/04/08 02:49:04;;;;;;;3.17;2.87;;;;;;;13.04;69.87;98210.16;5054605;28;20693;-81
2022/04/08 02:51:32;;;;;;;2.50;2.27;;;;;;;13.05;69.79;98212.59;5054380;28;20319;-82
2022/04/08 02:54:05;;;;;;;3.13;2.40;;;;;;;13.14;69.72;98216.47;5054862;28;20284;-81
2022/04/08 02:56:41;;;;;;;2.77;2.67;;;;;;;13.08;69.87;98214.78;5053997;28;20673;-82
2022/04/08 02:59:11;;;;;;;2.20;2.10;;;;;;;13.15;69.31;98220.75;5054803;28;20207;-83
2022/04/08 03:01:43;;;;;;;3.50;3.23;;;;;;;13.21;69.02;98222.44;5054123;28;20682;-82
2022/04/08 03:04:12;;;;;;;3.27;2.30;;;;;;;13.06;69.31;98229.38;5036207;28;20266;-82
2022/04/08 03:06:43;;;;;;;2.50;2.40;;;;;;;12.87;69.81;98220.00;5036432;28;20192;-82
2022/04/08 03:09:13;;;;;;;3.53;2.90;;;;;;;12.90;69.86;98225.63;5053752;28;20319;-81
2022/04/08 03:11:45;;;;;;;2.97;2.77;;;;;;;12.82;69.88;98234.03;5053522;28;20232;-82
2022/04/08 03:14:13;;;;;;;3.43;3.13;;;;;;;12.71;70.09;98232.25;5036771;28;20207;-80
2022/04/08 03:16:40;;;;;;;4.77;2.67;;;;;;;12.70;70.18;98233.28;5036885;28;20199;-82
2022/04/08 03:19:08;;;;;;;2.80;2.60;;;;;;;12.67;70.07;98230.28;5054619;28;20189;-81
2022/04/08 03:21:37;;;;;;;2.70;2.50;;;;;;;12.62;70.28;98241.66;5053795;28;20654;-82
2022/04/08 03:24:05;;;;;;;4.17;3.47;;;;;;;12.59;69.98;98234.16;5054317;28;20699;-82
2022/04/08 03:26:32;;;;;;;4.63;3.30;;;;;;;12.58;69.82;98221.88;5054365;28;20249;-82
2022/04/08 03:29:01;;;;;;;6.23;3.40;;;;;;;12.47;70.33;98236.06;5036164;28;20228;-82
2022/04/08 03:31:38;;;;;;;2.77;2.57;;;;;;;12.40;70.72;98232.75;5054187;28;20205;-81
2022/04/08 03:34:06;;;;;;;2.87;2.60;;;;;;;12.45;70.53;98232.03;5053784;28;20196;-84
2022/04/08 03:36:38;;;;;;;5.30;3.00;;;;;;;12.39;70.63;98238.31;5053999;28;20203;-85
2022/04/08 03:39:08;;;;;;;3.10;2.80;;;;;;;12.40;70.63;98243.38;5053700;28;20652;-81
2022/04/08 03:41:36;;;;;;;4.90;3.13;;;;;;;12.34;70.79;98230.22;5052793;28;20208;-82
2022/04/08 03:44:05;;;;;;;4.13;2.60;;;;;;;12.35;70.71;98253.94;5053786;28;20261;-82
2022/04/08 03:46:31;;;;;;;2.97;2.77;;;;;;;12.38;70.62;98248.16;5053691;28;20204;-80
2022/04/08 03:48:59;;;;;;;2.30;2.20;;;;;;;12.45;70.32;98248.81;5053718;28;20592;-80
2022/04/08 03:51:27;;;;;;;3.83;2.80;;;;;;;12.45;69.97;98259.47;5035924;28;20257;-82
2022/04/08 03:53:55;;;;;;;10.77;3.97;;;;;;;12.34;70.33;98247.03;5052756;28;20587;-84
2022/04/08 03:56:25;;;;;;;7.43;3.57;;;;;;;12.34;70.00;98257.66;5035706;28;20211;-81
2022/04/08 03:58:57;;;;;;;9.17;3.30;;;;;;;12.39;70.08;98270.25;5035843;28;20284;-83
2022/04/08 04:01:24;;;;;;;3.33;2.73;;;;;;;12.42;69.95;98269.78;5035610;28;20196;-84
2022/04/08 04:03:51;;;;;;;3.13;2.93;;;;;;;12.48;69.59;98274.97;5052990;28;20200;-86
2022/04/08 04:06:18;;;;;;;5.87;3.60;;;;;;;12.49;69.29;98276.56;5053469;28;20567;-83
2022/04/08 04:08:46;;;;;;;6.83;3.70;;;;;;;12.47;69.27;98276.03;5053951;28;20224;-83
2022/04/08 04:11:15;;;;;;;5.63;3.00;;;;;;;12.57;68.64;98281.53;5053255;28;20764;-83
2022/04/08 04:13:43;;;;;;;7.30;2.80;;;;;;;12.56;68.69;98282.59;5052609;28;20200;-79
2022/04/08 04:16:11;;;;;;;2.90;2.63;;;;;;;12.61;68.24;98293.31;5052560;28;20599;-83
2022/04/08 04:18:38;;;;;;;6.33;2.90;;;;;;;12.70;67.93;98293.75;5052350;28;20201;-84
2022/04/08 04:21:08;;;;;;;4.20;2.93;;;;;;;12.99;67.44;98290.84;5053043;28;20204;-83
2022/04/08 04:23:36;;;;;;;4.40;2.70;;;;;;;13.39;65.62;98304.84;5052425;28;20731;-83
2022/04/08 04:26:03;;;;;;;4.30;2.80;;;;;;;13.89;63.46;98316.28;5035344;28;20196;-85
2022/04/08 04:28:30;;;;;;;4.07;3.47;;;;;;;14.16;62.34;98327.88;5052750;28;20280;-82
2022/04/08 04:30:59;;;;;;;3.37;2.60;;;;;;;14.48;61.19;98328.88;5052996;28;20203;-84
2022/04/08 04:33:33;;;;;;;4.60;3.23;;;;;;;14.80;59.77;98334.31;5053132;28;20196;-82
2022/04/08 04:36:01;;;;;;;2.70;2.50;;;;;;;15.24;59.87;98333.16;5052548;28;20227;-67
2022/04/08 04:38:28;;;;;;;3.83;3.17;;;;;;;15.53;57.72;98348.69;5052648;28;20645;-67
2022/04/08 04:40:54;;;;;;;5.03;2.33;;;;;;;15.52;59.73;98339.03;5052371;28;20200;-73
2022/04/08 04:43:21;;;;;;;12.03;2.53;;;;;;;15.54;56.39;98341.47;5068234;28;20195;-73
2022/04/08 04:45:48;;;;;;;2.50;2.30;;;;;;;15.68;55.91;98350.66;5071931;28;20257;-74
2022/04/08 04:48:17;;;;;;;2.73;2.20;;;;;;;15.93;54.67;98364.28;5071726;28;20704;-74
2022/04/08 04:50:43;;;;;;;5.40;2.90;;;;;;;16.19;53.53;98349.97;5073314;28;20193;-75
2022/04/08 04:53:10;;;;;;;3.10;2.80;;;;;;;16.35;53.81;98377.63;5072533;28;20250;-75
2022/04/08 04:55:36;;;;;;;4.10;2.30;;;;;;;16.47;53.23;98384.44;5072034;28;20199;-74
2022/04/08 04:58:03;;;;;;;4.80;2.70;;;;;;;16.55;53.57;98385.81;5072057;28;20677;-77
2022/04/08 05:00:30;;;;;;;5.53;2.63;;;;;;;16.87;55.84;98378.44;5072601;28;20196;-71
2022/04/08 05:02:57;;;;;;;8.97;2.10;;;;;;;17.13;51.32;98405.09;5072138;28;20195;-74
2022/04/08 05:05:25;;;;;;;3.50;2.40;;;;;;;17.30;50.10;98405.66;5071912;28;20200;-75
2022/04/08 05:07:51;;;;;;;5.73;2.77;;;;;;;17.38;49.94;98407.00;5071667;28;20634;-74
2022/04/08 05:10:18;;;;;;;2.60;2.40;;;;;;;17.28;50.31;98420.44;5071901;28;20227;-74
2022/04/08 05:12:46;;;;;;;4.63;2.40;;;;;;;17.69;49.13;98427.50;5071536;28;20316;-68
2022/04/08 05:15:13;;;;;;;4.50;2.10;;;;;;;18.04;48.08;98422.94;5071758;28;20554;-69
2022/04/08 05:17:40;;;;;;;4.90;2.20;;;;;;;18.18;47.53;98428.59;5071860;28;20297;-73
2022/04/08 05:20:07;;;;;;;2.07;1.77;;;;;;;18.67;46.72;98433.06;5072065;28;20725;-70
2022/04/08 05:22:36;;;;;;;2.87;2.10;;;;;;;18.72;46.14;98440.34;5071855;28;20250;-70
2022/04/08 05:25:03;;;;;;;6.00;2.87;;;;;;;18.89;45.75;98435.44;5072087;28;20249;-79
2022/04/08 05:27:37;;;;;;;4.37;3.87;;;;;;;19.07;45.32;98442.91;5071403;28;20255;-79
2022/04/08 05:30:06;;;;;;;3.57;2.90;;;;;;;19.16;44.85;98452.03;5071513;28;20227;-75
2022/04/08 05:32:32;;;;;;;2.60;2.00;;;;;;;18.79;45.63;98446.25;5061248;28;20195;-78
2022/04/08 05:34:59;;;;;;;2.00;1.90;;;;;;;19.12;45.20;98445.56;5059482;28;20193;-76
2022/04/08 05:37:26;;;;;;;5.93;2.20;;;;;;;19.44;44.64;98448.69;5052256;28;20195;-76
2022/04/08 05:39:55;;;;;;;3.23;1.97;;;;;;;19.31;44.39;98449.25;5051771;28;20274;-77
2022/04/08 05:42:22;;;;;;;5.73;2.00;;;;;;;19.41;43.87;98460.00;5064861;28;20256;-78
2022/04/08 05:44:48;;;;;;;5.60;2.43;;;;;;;19.23;44.14;98452.50;5070675;28;20249;-79
2022/04/08 05:47:15;;;;;;;3.47;1.80;;;;;;;19.24;43.60;98456.84;5064225;28;20627;-76
2022/04/08 05:49:42;;;;;;;3.67;2.20;;;;;;;19.57;43.22;98456.13;5071791;28;20211;-76
2022/04/08 05:52:09;;;;;;;4.10;2.53;;;;;;;19.59;42.70;98453.94;5071574;28;20248;-76
2022/04/08 05:54:35;;;;;;;2.17;2.00;;;;;;;19.65;42.54;98455.56;5071499;28;20664;-77
2022/04/08 05:57:04;;;;;;;6.10;2.50;;;;;;;19.69;42.57;98452.00;5072318;28;20273;-77
2022/04/08 05:59:32;;;;;;;4.33;2.07;;;;;;;20.16;41.37;98459.50;5071458;28;20205;-75
2022/04/08 06:01:59;;;;;;;6.77;2.20;;;;;;;20.36;40.70;98459.31;5065491;28;20222;-75
2022/04/08 06:04:26;;;;;;;3.50;1.70;;;;;;;20.58;39.84;98470.44;5060997;28;20195;-78
2022/04/08 06:06:54;;;;;;;5.10;2.70;;;;;;;20.79;39.06;98481.84;5071810;28;20188;-76
2022/04/08 06:09:20;;;;;;;2.10;1.57;;;;;;;20.78;39.03;98491.81;5071172;28;20220;-74
2022/04/08 06:11:48;;;;;;;3.57;1.40;;;;;;;20.52;38.08;98487.78;5071874;28;20728;-76
2022/04/08 06:14:16;;;;;;;1.57;1.47;;;;;;;20.61;37.87;98486.06;5071435;28;20290;-75
2022/04/08 06:16:43;;;;;;;1.73;1.63;;;;;;;20.69;38.33;98492.75;5071270;28;20685;-76
2022/04/08 06:19:10;;;;;;;3.07;1.57;;;;;;;20.94;37.07;98497.91;5053744;28;20287;-72
2022/04/08 06:21:37;;;;;;;8.80;1.67;;;;;;;20.51;36.62;98495.03;5071276;28;20195;-73
2022/04/08 06:24:04;;;;;;;6.13;1.77;;;;;;;20.62;37.50;98509.25;5071115;28;20639;-71
2022/04/08 06:26:32;;;;;;;2.40;1.50;;;;;;;21.08;36.35;98502.34;5070793;28;20203;-74
2022/04/08 06:29:00;;;;;;;5.37;2.07;;;;;;;21.13;35.96;98509.56;5071037;28;20220;-74
2022/04/08 06:31:29;;;;;;;2.90;2.10;;;;;;;21.58;36.11;98517.09;5070413;28;20196;-71
2022/04/08 06:33:56;;;;;;;3.57;1.23;;;;;;;21.94;35.33;98520.97;5071472;28;20192;-73
2022/04/08 06:36:23;;;;;;;13.03;2.17;;;;;;;21.71;34.79;98517.22;5071146;28;20203;-76
2022/04/08 06:38:50;;;;;;;14.83;2.90;;;;;;;21.68;34.72;98512.38;5065162;28;20219;-73
2022/04/08 06:41:17;;;;;;;2.80;1.70;;;;;;;21.91;35.55;98513.44;5055799;28;20684;-75
2022/04/08 06:43:43;;;;;;;7.33;1.93;;;;;;;22.34;33.67;98521.13;5051351;28;20212;-72
2022/04/08 06:46:10;;;;;;;10.80;2.57;;;;;;;21.78;34.48;98517.69;5055070;28;20658;-75
2022/04/08 06:48:38;;;;;;;9.60;1.90;;;;;;;21.95;34.81;98520.66;5063096;28;20188;-69
2022/04/08 06:51:05;;;;;;;4.50;1.77;;;;;;;21.99;35.38;98520.88;5074138;28;20208;-73
2022/04/08 06:53:32;;;;;;;3.00;1.97;;;;;;;22.75;34.89;98530.19;5074116;28;20200;-72
2022/04/08 06:56:01;;;;;;;4.67;2.17;;;;;;;23.19;33.64;98533.16;5071906;28;20223;-75
2022/04/08 06:58:28;;;;;;;8.93;2.00;;;;;;;23.01;32.81;98520.53;5064833;28;20553;-76
2022/04/08 07:00:55;;;;;;;5.13;1.90;;;;;;;23.16;32.78;98533.75;5074562;28;20198;-78
2022/04/08 07:03:22;;;;;;;9.20;2.33;;;;;;;22.79;32.61;98538.56;5073589;28;20201;-74
2022/04/08 07:05:50;;;;;;;4.83;1.80;;;;;;;22.85;34.44;98551.69;5074332;28;20245;-72
2022/04/08 07:08:17;;;;;;;2.93;1.70;;;;;;;22.56;33.21;98545.72;5074322;28;20192;-73
2022/04/08 07:10:44;;;;;;;2.03;1.93;;;;;;;22.56;33.46;98556.53;5074205;28;20288;-72
2022/04/08 07:13:12;;;;;;;1.90;1.73;;;;;;;22.66;33.30;98550.94;5066975;28;20189;-74
2022/04/08 07:15:45;;;;;;;2.80;2.00;;;;;;;22.75;35.03;98543.75;5061919;28;20208;-71
2022/04/08 07:18:13;;;;;;;3.27;2.00;;;;;;;23.01;32.96;98541.38;5056002;28;20200;-74
2022/04/08 07:20:40;;;;;;;2.37;1.73;;;;;;;23.61;33.47;98546.44;5073400;28;20212;-73
2022/04/08 07:23:09;;;;;;;6.17;1.90;;;;;;;23.90;32.60;98548.81;5073019;28;20728;-73
2022/04/08 07:25:38;;;;;;;2.23;1.60;;;;;;;24.14;31.69;98552.88;5073251;28;20678;-74
2022/04/08 07:28:15;;;;;;;5.60;1.97;;;;;;;23.70;31.26;98560.91;5073988;28;20217;-75
2022/04/08 07:30:42;;;;;;;4.53;1.67;;;;;;;23.72;31.74;98566.81;5073740;28;20213;-78
2022/04/08 07:33:11;;;;;;;5.00;2.67;;;;;;;24.09;31.94;98568.50;5073383;28;20654;-79
2022/04/08 07:35:39;;;;;;;8.13;1.73;;;;;;;24.27;32.32;98571.06;5074157;28;20690;-75
2022/04/08 07:38:28;;;;;;;7.50;2.00;;;;;;;24.23;30.68;98566.53;5076407;28;20207;-76
2022/04/08 07:40:57;;;;;;;2.77;1.80;;;;;;;24.01;31.22;98567.28;5047077;28;20205;-73
2022/04/08 07:43:28;;;;;;;10.73;2.27;;;;;;;23.78;32.49;98571.03;5058321;28;20233;-74
2022/04/08 07:45:55;;;;;;;3.83;2.07;;;;;;;24.07;31.87;98563.38;5075384;28;20207;-75
2022/04/08 07:48:24;;;;;;;6.07;2.40;;;;;;;24.61;31.84;98557.75;5052716;28;20260;-73
2022/04/08 07:51:10;;;;;;;4.13;2.00;;;;;;;25.03;29.92;98564.53;5073139;28;20317;-77
2022/04/08 07:53:43;;;;;;;3.70;1.80;;;;;;;25.50;29.00;98560.31;5072248;28;20199;-80
2022/04/08 07:56:17;;;;;;;18.27;2.90;;;;;;;25.38;29.97;98560.91;5073830;28;20664;-76
2022/04/08 07:58:48;;;;;;;1.93;1.83;;;;;;;25.38;29.12;98558.19;5073877;28;20203;-74
2022/04/08 08:01:16;;;;;;;6.50;1.70;;;;;;;24.49;30.11;98557.47;5073458;28;20276;-76
2022/04/08 08:03:47;;;;;;;3.93;1.80;;;;;;;24.64;30.04;98556.34;5072429;28;20196;-80
2022/04/08 08:06:15;;;;;;;1.70;1.60;;;;;;;24.81;29.87;98564.59;5072682;28;20196;-78
2022/04/08 08:08:50;;;;;;;3.13;2.10;;;;;;;23.90;30.08;98576.75;5072588;28;20196;-78
2022/04/08 08:11:19;;;;;;;2.40;2.20;;;;;;;24.04;30.87;98577.53;5050993;28;20235;-80
2022/04/08 08:13:47;;;;;;;5.10;3.10;;;;;;;23.88;30.27;98581.66;5041164;28;20220;-71
2022/04/08 08:16:14;;;;;;;4.77;2.37;;;;;;;24.07;30.13;98587.81;5042883;28;20204;-71
2022/04/08 08:18:41;;;;;;;4.13;2.00;;;;;;;23.68;30.64;98600.28;5050743;28;20198;-76
2022/04/08 08:21:09;;;;;;;3.17;1.80;;;;;;;23.72;31.93;98603.97;5051834;28;20257;-81
2022/04/08 08:23:38;;;;;;;4.30;1.97;;;;;;;24.01;30.60;98605.28;5051166;28;20321;-73
2022/04/08 08:26:08;;;;;;;1.70;1.60;;;;;;;23.83;30.80;98598.06;5052778;28;20203;-74
2022/04/08 08:28:37;;;;;;;3.53;2.27;;;;;;;24.03;30.26;98603.09;5052787;28;20203;-75
2022/04/08 08:31:04;;;;;;;4.70;2.40;;;;;;;24.08;31.55;98616.53;5052828;28;20226;-73
2022/04/08 08:33:31;;;;;;;4.80;2.30;;;;;;;24.57;29.20;98618.41;5052902;28;20254;-69
2022/04/08 08:36:01;;;;;;;3.33;2.23;;;;;;;24.52;28.71;98629.38;5052739;28;20269;-70
2022/04/08 08:38:29;;;;;;;7.27;2.43;;;;;;;24.42;29.87;98614.13;5052414;28;20206;-75
2022/04/08 08:40:58;;;;;;;3.67;2.23;;;;;;;24.86;28.30;98611.47;5049937;28;20746;-77
2022/04/08 08:43:28;;;;;;;4.20;2.23;;;;;;;24.47;28.63;98603.13;5052380;28;20658;-77
2022/04/08 08:46:00;;;;;;;5.43;2.20;;;;;;;23.90;29.17;98609.31;5052595;28;20206;-73
2022/04/08 08:48:29;;;;;;;7.73;2.17;;;;;;;23.90;30.08;98603.88;5044133;28;20214;-73
2022/04/08 08:51:01;;;;;;;2.40;2.20;;;;;;;23.97;29.92;98598.84;5052351;28;20223;-73
2022/04/08 08:53:39;;;;;;;6.83;2.20;;;;;;;24.18;29.35;98594.59;5052391;28;20197;-75
2022/04/08 08:56:07;;;;;;;2.73;1.83;;;;;;;24.23;29.75;98596.41;5051139;28;20199;-75
2022/04/08 08:58:36;;;;;;;2.53;2.20;;;;;;;24.51;28.63;98603.34;5051591;28;20212;-72
2022/04/08 09:01:03;;;;;;;2.30;2.20;;;;;;;24.17;29.11;98603.84;5051684;28;20657;-72
2022/04/08 09:03:30;;;;;;;2.10;2.00;;;;;;;24.58;30.22;98598.25;5051554;28;20204;-72
2022/04/08 09:06:06;;;;;;;2.80;2.60;;;;;;;24.96;28.38;98594.88;5051363;28;20286;-73
2022/04/08 09:08:33;;;;;;;18.57;3.83;;;;;;;25.42;27.81;98604.59;5051336;28;20203;-71
2022/04/08 09:11:00;;;;;;;8.27;2.53;;;;;;;25.50;27.01;98595.66;5057165;28;20234;-73
2022/04/08 09:13:28;;;;;;;2.37;1.87;;;;;;;25.68;27.45;98584.53;5071902;28;20615;-72
2022/04/08 09:15:58;;;;;;;5.40;2.30;;;;;;;25.76;27.12;98585.69;5071770;28;20192;-79
2022/04/08 09:18:29;;;;;;;6.67;2.50;;;;;;;26.07;25.55;98591.84;5072087;28;20191;-74
2022/04/08 09:20:57;;;;;;;1.90;1.80;;;;;;;25.89;26.00;98585.53;5071674;28;20235;-71
2022/04/08 09:23:23;;;;;;;2.93;1.97;;;;;;;26.14;26.74;98593.00;5071837;28;20250;-73
2022/04/08 09:25:59;;;;;;;3.40;1.97;;;;;;;25.83;25.85;98580.56;5071403;28;20609;-73
2022/04/08 09:28:33;;;;;;;4.03;2.20;;;;;;;25.62;26.51;98596.69;5071458;28;20188;-72
2022/04/08 09:31:02;;;;;;;3.40;2.00;;;;;;;25.25;26.68;98605.28;5071428;28;20684;-72
2022/04/08 09:33:29;;;;;;;6.67;1.90;;;;;;;25.73;26.97;98595.28;5071391;28;20665;-73
2022/04/08 09:35:58;;;;;;;2.30;2.10;;;;;;;25.73;25.52;98603.44;5070746;28;20317;-74
2022/04/08 09:38:26;;;;;;;1.87;1.77;;;;;;;25.82;25.36;98596.09;5071294;28;20231;-72
2022/04/08 09:41:01;;;;;;;4.30;2.27;;;;;;;26.10;24.57;98597.47;5068933;28;20279;-70
2022/04/08 09:43:32;;;;;;;5.47;2.27;;;;;;;26.06;23.51;98612.84;5071753;28;20569;-72
2022/04/08 09:46:17;;;;;;;5.47;2.10;;;;;;;25.60;24.19;98619.88;5071863;28;20287;-73
2022/04/08 09:48:45;;;;;;;1.87;1.70;;;;;;;25.75;23.88;98617.53;5052366;28;20275;-75
2022/04/08 09:51:20;;;;;;;2.40;1.60;;;;;;;25.57;23.89;98612.34;5071156;28;20692;-75
2022/04/08 09:53:51;;;;;;;1.83;1.47;;;;;;;25.59;25.44;98615.56;5071537;28;20568;-73
2022/04/08 09:56:21;;;;;;;3.37;1.87;;;;;;;25.52;25.75;98601.59;5071480;28;20258;-74
2022/04/08 09:58:55;;;;;;;3.33;2.10;;;;;;;25.56;26.04;98580.81;5071186;28;20204;-72
2022/04/08 10:01:25;;;;;;;3.23;1.93;;;;;;;25.87;25.07;98592.41;5071699;28;20188;-71
2022/04/08 10:03:52;;;;;;;2.43;2.17;;;;;;;26.24;24.79;98589.94;5071248;28;20584;-71
2022/04/08 10:06:21;;;;;;;4.67;2.37;;;;;;;26.13;26.04;98590.59;5071381;28;20188;-70
2022/04/08 10:08:49;;;;;;;3.83;2.10;;;;;;;25.69;24.57;98602.47;5071453;28;20208;-71
2022/04/08 10:11:22;;;;;;;4.87;2.07;;;;;;;26.10;25.01;98588.50;5071198;28;20232;-70
2022/04/08 10:14:00;;;;;;;2.50;1.63;;;;;;;26.06;25.07;98601.13;5071401;28;20674;-70
2022/04/08 10:16:31;;;;;;;9.73;2.00;;;;;;;25.89;25.74;98587.47;5070928;28;20649;-74
2022/04/08 10:19:04;;;;;;;3.60;1.93;;;;;;;26.07;26.16;98580.94;5072415;28;20607;-71
2022/04/08 10:21:36;;;;;;;2.00;1.90;;;;;;;26.19;25.26;98600.19;5074885;28;20204;-72
2022/04/08 10:24:09;;;;;;;2.80;2.10;;;;;;;26.38;24.68;98604.19;5075258;28;20192;-73
2022/04/08 10:26:35;;;;;;;8.07;2.40;;;;;;;26.63;24.22;98617.06;5075163;28;20267;-73
2022/04/08 10:29:10;;;;;;;1.80;1.70;;;;;;;26.89;23.35;98615.13;5075050;28;20257;-70
2022/04/08 10:31:39;;;;;;;1.97;1.63;;;;;;;27.12;23.87;98602.06;5074798;28;20222;-71
2022/04/08 10:34:05;;;;;;;1.43;1.40;;;;;;;26.89;22.61;98617.03;5057278;28;20192;-71
2022/04/08 10:36:33;;;;;;;2.80;1.70;;;;;;;26.91;23.68;98606.63;5075167;28;20192;-71
2022/04/08 10:39:12;;;;;;;3.90;1.60;;;;;;;26.44;23.35;98605.66;5073965;28;20199;-72
2022/04/08 10:41:46;;;;;;;8.60;3.83;;;;;;;26.35;23.60;98598.59;5072084;28;20203;-72
2022/04/08 10:44:13;;;;;;;6.07;2.30;;;;;;;26.70;22.97;98600.22;5068131;28;20196;-71
2022/04/08 10:46:51;;;;;;;2.70;1.87;;;;;;;27.04;22.69;98592.00;5063478;28;20250;-76
2022/04/08 10:49:18;;;;;;;2.00;1.77;;;;;;;26.94;22.68;98589.59;5052256;28;20216;-73
2022/04/08 10:51:46;;;;;;;2.53;1.37;;;;;;;26.93;22.79;98594.25;5052056;28;20281;-71
2022/04/08 10:54:12;;;;;;;3.83;1.80;;;;;;;26.86;22.84;98585.75;5052490;28;20262;-73
2022/04/08 10:56:39;;;;;;;8.10;1.93;;;;;;;26.73;23.50;98578.59;5052938;28;20193;-71
2022/04/08 10:59:07;;;;;;;7.30;2.07;;;;;;;26.75;22.88;98580.97;5053186;28;20189;-71
2022/04/08 11:01:35;;;;;;;2.30;1.20;;;;;;;26.93;23.00;98574.38;5052091;28;20279;-71
2022/04/08 11:04:10;;;;;;;1.83;1.73;;;;;;;27.12;22.40;98591.94;5051690;28;20692;-71
2022/04/08 11:06:48;;;;;;;2.17;1.63;;;;;;;27.00;22.35;98580.13;5052363;28;20258;-71
2022/04/08 11:09:15;;;;;;;2.10;2.00;;;;;;;26.69;22.32;98576.81;5035658;28;20191;-70
2022/04/08 11:11:55;;;;;;;2.83;1.30;;;;;;;26.82;22.72;98575.84;5052326;28;20228;-71
2022/04/08 11:14:22;;;;;;;2.47;2.00;;;;;;;26.74;22.71;98549.41;5057707;28;20204;-69
2022/04/08 11:16:50;;;;;;;2.37;2.27;;;;;;;27.09;22.49;98575.44;5063853;28;20197;-69
2022/04/08 11:19:21;;;;;;;2.60;2.40;;;;;;;27.29;22.72;98572.03;5070307;28;20199;-70
2022/04/08 11:21:49;;;;;;;2.47;2.37;;;;;;;27.41;22.02;98578.44;5074159;28;20277;-72
2022/04/08 11:24:18;;;;;;;2.37;1.80;;;;;;;27.09;22.39;98564.53;5055572;28;20807;-73
2022/04/08 11:26:47;;;;;;;2.00;1.47;;;;;;;26.26;22.77;98556.94;5064280;28;20200;-75
2022/04/08 11:29:16;;;;;;;2.57;1.97;;;;;;;26.31;23.25;98559.50;5074162;28;20230;-76
2022/04/08 11:31:43;;;;;;;4.13;1.63;;;;;;;26.67;23.15;98551.81;5063505;28;20319;-73
2022/04/08 11:34:10;;;;;;;10.37;1.93;;;;;;;26.83;23.01;98553.69;5054523;28;20251;-72
2022/04/08 11:36:38;;;;;;;1.80;1.50;;;;;;;26.94;22.50;98548.69;5073621;28;20672;-73
2022/04/08 11:39:06;;;;;;;3.47;2.43;;;;;;;26.81;22.61;98561.41;5073399;28;20188;-71
2022/04/08 11:41:33;;;;;;;3.23;2.10;;;;;;;26.84;21.96;98549.06;5056355;28;20196;-72
2022/04/08 11:44:01;;;;;;;2.77;2.17;;;;;;;26.83;22.25;98553.69;5053454;28;20668;-71